sensor_id;sensor_type;location;lat;lon;timestamp;pressure;altitude;pressure_sealevel;temperature;humidity
39301;BME280;25019;42.626;23.380;2023-07-20T00:01:25;94130.91;;;22.57;65.00
39301;BME280;25019;42.626;23.380;2023-07-20T00:03:51;94052.88;;;21.96;65.48
39301;BME280;25019;42.626;23.380;2023-07-20T00:06:24;94141.69;;;22.36;66.38
39301;BME280;25019;42.626;23.380;2023-07-20T00:08:51;94137.50;;;22.18;67.18
39301;BME280;25019;42.626;23.380;2023-07-20T00:11:17;94100.03;;;21.86;68.20
39301;BME280;25019;42.626;23.380;2023-07-20T00:13:43;94137.63;;;22.00;69.03
39301;BME280;25019;42.626;23.380;2023-07-20T00:16:09;94142.09;;;21.96;69.56
39301;BME280;25019;42.626;23.380;2023-07-20T00:18:35;94140.50;;;21.95;69.47
39301;BME280;25019;42.626;23.380;2023-07-20T00:21:00;94124.69;;;21.84;69.38
39301;BME280;25019;42.626;23.380;2023-07-20T00:23:27;94127.41;;;21.84;69.94
39301;BME280;25019;42.626;23.380;2023-07-20T00:25:53;94085.94;;;21.42;71.69
39301;BME280;25019;42.626;23.380;2023-07-20T00:28:19;94127.94;;;21.69;72.26
39301;BME280;25019;42.626;23.380;2023-07-20T00:30:45;94127.81;;;21.65;72.06
39301;BME280;25019;42.626;23.380;2023-07-20T00:33:11;94117.91;;;21.61;71.94
39301;BME280;25019;42.626;23.380;2023-07-20T00:35:38;94117.13;;;21.60;71.44
39301;BME280;25019;42.626;23.380;2023-07-20T00:38:04;94117.78;;;21.57;70.85
39301;BME280;25019;42.626;23.380;2023-07-20T00:40:40;94113.97;;;21.58;70.51
39301;BME280;25019;42.626;23.380;2023-07-20T00:43:06;94051.88;;;21.19;70.53
39301;BME280;25019;42.626;23.380;2023-07-20T00:45:33;94110.78;;;21.65;69.97
39301;BME280;25019;42.626;23.380;2023-07-20T00:48:00;94102.53;;;21.61;69.83
39301;BME280;25019;42.626;23.380;2023-07-20T00:50:28;94061.47;;;21.38;69.21
39301;BME280;25019;42.626;23.380;2023-07-20T00:52:55;94092.69;;;21.65;68.71
39301;BME280;25019;42.626;23.380;2023-07-20T00:55:23;94057.19;;;21.37;68.72
39301;BME280;25019;42.626;23.380;2023-07-20T00:57:49;94104.25;;;21.66;67.81
39301;BME280;25019;42.626;23.380;2023-07-20T01:00:16;93998.59;;;20.99;68.30
39301;BME280;25019;42.626;23.380;2023-07-20T01:02:42;94080.78;;;21.49;69.36
39301;BME280;25019;42.626;23.380;2023-07-20T01:05:08;94063.44;;;21.29;70.71
39301;BME280;25019;42.626;23.380;2023-07-20T01:07:38;94096.69;;;21.50;71.09
39301;BME280;25019;42.626;23.380;2023-07-20T01:10:12;94120.41;;;21.36;72.75
39301;BME280;25019;42.626;23.380;2023-07-20T01:12:48;94126.53;;;21.15;75.22
39301;BME280;25019;42.626;23.380;2023-07-20T01:15:16;94033.63;;;20.33;77.29
39301;BME280;25019;42.626;23.380;2023-07-20T01:17:41;94090.06;;;20.65;78.15
39301;BME280;25019;42.626;23.380;2023-07-20T01:20:09;94138.03;;;20.86;78.50
39301;BME280;25019;42.626;23.380;2023-07-20T01:23:15;94137.22;;;20.76;78.74
39301;BME280;25019;42.626;23.380;2023-07-20T01:31:44;94041.56;;;20.03;80.45
39301;BME280;25019;42.626;23.380;2023-07-20T01:34:12;94117.38;;;20.55;80.82
39301;BME280;25019;42.626;23.380;2023-07-20T01:36:42;94123.56;;;20.55;80.87
39301;BME280;25019;42.626;23.380;2023-07-20T01:39:10;94114.84;;;20.49;81.00
39301;BME280;25019;42.626;23.380;2023-07-20T01:41:36;94123.72;;;20.50;81.04
39301;BME280;25019;42.626;23.380;2023-07-20T01:44:03;94079.97;;;20.18;81.37
39301;BME280;25019;42.626;23.380;2023-07-20T01:46:30;94129.13;;;20.41;81.42
39301;BME280;25019;42.626;23.380;2023-07-20T01:48:57;94111.03;;;20.24;82.79
39301;BME280;25019;42.626;23.380;2023-07-20T01:51:22;94111.84;;;20.16;83.17
39301;BME280;25019;42.626;23.380;2023-07-20T01:53:48;94063.25;;;19.81;83.75
39301;BME280;25019;42.626;23.380;2023-07-20T01:56:14;94074.97;;;19.85;83.99
39301;BME280;25019;42.626;23.380;2023-07-20T01:58:39;94112.28;;;20.09;84.35
39301;BME280;25019;42.626;23.380;2023-07-20T02:01:05;94120.06;;;20.11;85.05
39301;BME280;25019;42.626;23.380;2023-07-20T02:03:31;94116.09;;;20.08;85.33
39301;BME280;25019;42.626;23.380;2023-07-20T02:05:56;94095.16;;;19.96;85.56
39301;BME280;25019;42.626;23.380;2023-07-20T02:08:22;94104.38;;;20.04;85.85
39301;BME280;25019;42.626;23.380;2023-07-20T02:10:48;94109.75;;;20.04;86.06
39301;BME280;25019;42.626;23.380;2023-07-20T02:13:15;94043.56;;;19.63;85.53
39301;BME280;25019;42.626;23.380;2023-07-20T02:15:41;94048.47;;;19.69;85.91
39301;BME280;25019;42.626;23.380;2023-07-20T02:18:08;94095.72;;;19.84;85.53
39301;BME280;25019;42.626;23.380;2023-07-20T02:20:34;94090.81;;;19.77;86.05
39301;BME280;25019;42.626;23.380;2023-07-20T02:23:00;94009.91;;;19.25;86.53
39301;BME280;25019;42.626;23.380;2023-07-20T02:25:25;94092.72;;;19.77;86.92
39301;BME280;25019;42.626;23.380;2023-07-20T02:27:52;94100.97;;;19.81;86.78
39301;BME280;25019;42.626;23.380;2023-07-20T02:30:18;94105.25;;;19.82;86.67
39301;BME280;25019;42.626;23.380;2023-07-20T02:32:43;94101.44;;;19.83;86.75
39301;BME280;25019;42.626;23.380;2023-07-20T02:35:14;93998.00;;;19.17;86.91
39301;BME280;25019;42.626;23.380;2023-07-20T02:37:40;94106.03;;;19.82;87.16
39301;BME280;25019;42.626;23.380;2023-07-20T02:40:06;94060.81;;;19.53;87.08
39301;BME280;25019;42.626;23.380;2023-07-20T02:42:33;94085.09;;;19.70;87.47
39301;BME280;25019;42.626;23.380;2023-07-20T02:44:59;94090.94;;;19.72;87.60
39301;BME280;25019;42.626;23.380;2023-07-20T02:47:24;94033.03;;;19.35;87.40
39301;BME280;25019;42.626;23.380;2023-07-20T02:49:50;94083.19;;;19.62;87.73
39301;BME280;25019;42.626;23.380;2023-07-20T02:52:16;94063.16;;;19.45;88.73
39301;BME280;25019;42.626;23.380;2023-07-20T02:54:41;94072.69;;;19.52;89.17
39301;BME280;25019;42.626;23.380;2023-07-20T02:57:07;94070.78;;;19.52;89.05
39301;BME280;25019;42.626;23.380;2023-07-20T02:59:33;94066.81;;;19.41;89.32
39301;BME280;25019;42.626;23.380;2023-07-20T03:01:58;94077.91;;;19.48;89.09
39301;BME280;25019;42.626;23.380;2023-07-20T03:04:27;94053.47;;;19.27;88.74
39301;BME280;25019;42.626;23.380;2023-07-20T03:06:53;94013.31;;;18.99;88.57
39301;BME280;25019;42.626;23.380;2023-07-20T03:09:19;94081.53;;;19.43;88.44
39301;BME280;25019;42.626;23.380;2023-07-20T03:11:44;94085.31;;;19.42;88.46
39301;BME280;25019;42.626;23.380;2023-07-20T03:14:11;94083.44;;;19.43;88.68
39301;BME280;25019;42.626;23.380;2023-07-20T03:16:37;94085.81;;;19.44;88.40
39301;BME280;25019;42.626;23.380;2023-07-20T03:19:03;94091.38;;;19.48;88.34
39301;BME280;25019;42.626;23.380;2023-07-20T03:21:31;94056.16;;;19.27;87.70
39301;BME280;25019;42.626;23.380;2023-07-20T03:23:58;94051.25;;;19.29;86.50
39301;BME280;25019;42.626;23.380;2023-07-20T03:26:24;94103.63;;;19.63;86.07
39301;BME280;25019;42.626;23.380;2023-07-20T03:28:49;94102.81;;;19.63;85.63
39301;BME280;25019;42.626;23.380;2023-07-20T03:31:15;94089.50;;;19.57;86.06
39301;BME280;25019;42.626;23.380;2023-07-20T03:33:41;94107.25;;;19.67;85.96
39301;BME280;25019;42.626;23.380;2023-07-20T03:36:07;94060.31;;;19.42;86.03
39301;BME280;25019;42.626;23.380;2023-07-20T03:38:33;94109.53;;;19.83;85.62
39301;BME280;25019;42.626;23.380;2023-07-20T03:41:00;94088.13;;;19.86;85.05
39301;BME280;25019;42.626;23.380;2023-07-20T03:43:27;94102.31;;;20.10;84.68
39301;BME280;25019;42.626;23.380;2023-07-20T03:45:54;94102.78;;;20.29;83.93
39301;BME280;25019;42.626;23.380;2023-07-20T03:48:21;94107.72;;;20.45;82.92
39301;BME280;25019;42.626;23.380;2023-07-20T03:50:49;94105.31;;;20.70;81.90
39301;BME280;25019;42.626;23.380;2023-07-20T03:53:15;94112.13;;;20.93;81.02
39301;BME280;25019;42.626;23.380;2023-07-20T03:55:44;94114.91;;;21.23;79.60
39301;BME280;25019;42.626;23.380;2023-07-20T03:58:12;94057.72;;;21.21;78.92
39301;BME280;25019;42.626;23.380;2023-07-20T04:00:38;94061.88;;;21.58;77.46
39301;BME280;25019;42.626;23.380;2023-07-20T04:03:04;94103.81;;;22.15;75.77
39301;BME280;25019;42.626;23.380;2023-07-20T04:05:30;94110.25;;;22.53;73.92
39301;BME280;25019;42.626;23.380;2023-07-20T04:07:55;94115.66;;;22.86;71.48
39301;BME280;25019;42.626;23.380;2023-07-20T04:10:21;94067.84;;;22.90;69.64
39301;BME280;25019;42.626;23.380;2023-07-20T04:12:51;94075.75;;;23.42;68.46
39301;BME280;25019;42.626;23.380;2023-07-20T04:15:17;94076.66;;;23.83;67.92
39301;BME280;25019;42.626;23.380;2023-07-20T04:17:42;94080.56;;;24.23;66.30
39301;BME280;25019;42.626;23.380;2023-07-20T04:20:08;94024.31;;;24.07;64.92
39301;BME280;25019;42.626;23.380;2023-07-20T04:22:34;94094.63;;;24.41;65.17
39301;BME280;25019;42.626;23.380;2023-07-20T04:25:02;94081.66;;;24.34;65.10
39301;BME280;25019;42.626;23.380;2023-07-20T04:27:28;94089.53;;;24.52;64.62
39301;BME280;25019;42.626;23.380;2023-07-20T04:29:54;94085.06;;;24.72;63.72
39301;BME280;25019;42.626;23.380;2023-07-20T04:32:20;94091.41;;;24.92;61.97
39301;BME280;25019;42.626;23.380;2023-07-20T04:34:45;94091.72;;;25.19;61.23
39301;BME280;25019;42.626;23.380;2023-07-20T04:37:11;94057.63;;;25.22;60.71
39301;BME280;25019;42.626;23.380;2023-07-20T04:39:37;94090.44;;;25.77;59.64
39301;BME280;25019;42.626;23.380;2023-07-20T04:42:07;94081.06;;;26.10;58.20
39301;BME280;25019;42.626;23.380;2023-07-20T04:44:32;94069.03;;;26.47;56.97
39301;BME280;25019;42.626;23.380;2023-07-20T04:46:58;94069.75;;;26.83;55.98
39301;BME280;25019;42.626;23.380;2023-07-20T04:49:24;94072.38;;;27.22;54.15
39301;BME280;25019;42.626;23.380;2023-07-20T04:51:50;94075.38;;;27.60;53.13
39301;BME280;25019;42.626;23.380;2023-07-20T04:54:17;94038.59;;;27.77;51.87
39301;BME280;25019;42.626;23.380;2023-07-20T04:56:44;94026.91;;;28.04;50.68
39301;BME280;25019;42.626;23.380;2023-07-20T04:59:11;94030.13;;;28.40;49.67
39301;BME280;25019;42.626;23.380;2023-07-20T05:01:37;94068.09;;;28.83;49.90
39301;BME280;25019;42.626;23.380;2023-07-20T05:04:02;94068.00;;;29.10;49.75
39301;BME280;25019;42.626;23.380;2023-07-20T05:06:28;94064.63;;;29.27;48.21
39301;BME280;25019;42.626;23.380;2023-07-20T05:08:54;94058.22;;;29.50;46.80
39301;BME280;25019;42.626;23.380;2023-07-20T05:11:20;94070.94;;;29.77;45.93
39301;BME280;25019;42.626;23.380;2023-07-20T05:13:45;94064.78;;;29.94;45.15
39301;BME280;25019;42.626;23.380;2023-07-20T05:16:11;94070.47;;;30.23;45.32
39301;BME280;25019;42.626;23.380;2023-07-20T05:18:37;94070.56;;;30.45;45.15
39301;BME280;25019;42.626;23.380;2023-07-20T05:21:03;94067.94;;;30.63;45.07
39301;BME280;25019;42.626;23.380;2023-07-20T05:23:28;94056.63;;;30.75;44.41
39301;BME280;25019;42.626;23.380;2023-07-20T05:25:59;94071.91;;;30.84;44.64
39301;BME280;25019;42.626;23.380;2023-07-20T05:28:27;94064.13;;;30.93;44.58
39301;BME280;25019;42.626;23.380;2023-07-20T05:30:53;94035.50;;;30.87;44.13
39301;BME280;25019;42.626;23.380;2023-07-20T05:33:20;94059.91;;;31.17;43.61
39301;BME280;25019;42.626;23.380;2023-07-20T05:35:46;94074.81;;;31.34;43.09
39301;BME280;25019;42.626;23.380;2023-07-20T05:38:12;94068.94;;;31.50;42.52
39301;BME280;25019;42.626;23.380;2023-07-20T05:40:41;94072.84;;;31.67;41.32
39301;BME280;25019;42.626;23.380;2023-07-20T05:43:08;94075.63;;;31.82;40.74
39301;BME280;25019;42.626;23.380;2023-07-20T05:45:33;94080.69;;;32.09;40.03
39301;BME280;25019;42.626;23.380;2023-07-20T05:47:59;94049.31;;;32.03;39.10
39301;BME280;25019;42.626;23.380;2023-07-20T05:50:25;94032.44;;;32.01;39.31
39301;BME280;25019;42.626;23.380;2023-07-20T05:52:54;94085.69;;;32.57;38.57
39301;BME280;25019;42.626;23.380;2023-07-20T05:55:20;94079.72;;;32.81;38.53
39301;BME280;25019;42.626;23.380;2023-07-20T05:57:46;94050.66;;;32.83;38.78
39301;BME280;25019;42.626;23.380;2023-07-20T06:00:13;94045.91;;;32.91;38.46
39301;BME280;25019;42.626;23.380;2023-07-20T06:02:39;94085.38;;;33.26;38.41
39301;BME280;25019;42.626;23.380;2023-07-20T06:05:06;94039.25;;;32.89;37.97
39301;BME280;25019;42.626;23.380;2023-07-20T06:07:36;94022.47;;;32.65;37.85
39301;BME280;25019;42.626;23.380;2023-07-20T06:10:02;94032.66;;;32.64;37.63
39301;BME280;25019;42.626;23.380;2023-07-20T06:12:28;94064.03;;;32.85;37.40
39301;BME280;25019;42.626;23.380;2023-07-20T06:14:54;94082.81;;;32.97;36.86
39301;BME280;25019;42.626;23.380;2023-07-20T06:17:20;94060.38;;;33.02;37.05
39301;BME280;25019;42.626;23.380;2023-07-20T06:19:46;94065.78;;;33.21;36.89
39301;BME280;25019;42.626;23.380;2023-07-20T06:22:11;94061.78;;;33.32;36.32
39301;BME280;25019;42.626;23.380;2023-07-20T06:24:37;94067.22;;;33.43;36.28
39301;BME280;25019;42.626;23.380;2023-07-20T06:27:03;94064.00;;;33.52;36.53
39301;BME280;25019;42.626;23.380;2023-07-20T06:29:31;94064.16;;;33.30;36.35
39301;BME280;25019;42.626;23.380;2023-07-20T06:31:56;94045.16;;;32.83;36.28
39301;BME280;25019;42.626;23.380;2023-07-20T06:34:22;94049.91;;;32.68;37.69
39301;BME280;25019;42.626;23.380;2023-07-20T06:36:48;94055.41;;;32.72;38.35
39301;BME280;25019;42.626;23.380;2023-07-20T06:39:13;94050.31;;;32.70;38.04
39301;BME280;25019;42.626;23.380;2023-07-20T06:41:40;94055.44;;;32.65;37.81
39301;BME280;25019;42.626;23.380;2023-07-20T06:44:05;94019.47;;;32.08;38.86
39301;BME280;25019;42.626;23.380;2023-07-20T06:46:31;93990.56;;;31.35;38.98
39301;BME280;25019;42.626;23.380;2023-07-20T06:48:57;94026.16;;;30.91;40.15
39301;BME280;25019;42.626;23.380;2023-07-20T06:51:22;94054.28;;;30.85;40.90
39301;BME280;25019;42.626;23.380;2023-07-20T06:53:48;94063.91;;;30.42;40.78
39301;BME280;25019;42.626;23.380;2023-07-20T06:56:14;94064.88;;;30.05;42.74
39301;BME280;25019;42.626;23.380;2023-07-20T06:58:39;94061.06;;;30.21;42.77
39301;BME280;25019;42.626;23.380;2023-07-20T07:01:06;94070.81;;;30.11;42.33
39301;BME280;25019;42.626;23.380;2023-07-20T07:03:32;94084.03;;;30.01;42.69
39301;BME280;25019;42.626;23.380;2023-07-20T07:05:58;94014.09;;;29.55;43.05
39301;BME280;25019;42.626;23.380;2023-07-20T07:08:23;94090.38;;;30.20;42.78
39301;BME280;25019;42.626;23.380;2023-07-20T07:10:50;94040.31;;;29.60;43.07
39301;BME280;25019;42.626;23.380;2023-07-20T07:13:15;94051.63;;;29.58;43.68
39301;BME280;25019;42.626;23.380;2023-07-20T07:15:42;94093.09;;;29.60;44.38
39301;BME280;25019;42.626;23.380;2023-07-20T07:18:07;94098.63;;;28.92;46.60
39301;BME280;25019;42.626;23.380;2023-07-20T07:20:33;94096.13;;;28.46;47.55
39301;BME280;25019;42.626;23.380;2023-07-20T07:22:59;94122.78;;;28.02;48.80
39301;BME280;25019;42.626;23.380;2023-07-20T07:25:24;94129.03;;;28.03;48.03
39301;BME280;25019;42.626;23.380;2023-07-20T07:27:52;94137.53;;;28.21;47.21
39301;BME280;25019;42.626;23.380;2023-07-20T07:30:18;94142.75;;;28.33;48.18
39301;BME280;25019;42.626;23.380;2023-07-20T07:32:43;94130.91;;;28.52;48.76
39301;BME280;25019;42.626;23.380;2023-07-20T07:35:09;94089.03;;;28.41;49.25
39301;BME280;25019;42.626;23.380;2023-07-20T07:37:35;94060.84;;;28.64;48.75
39301;BME280;25019;42.626;23.380;2023-07-20T07:40:02;94127.75;;;29.11;46.73
39301;BME280;25019;42.626;23.380;2023-07-20T07:42:29;94121.84;;;29.06;46.97
39301;BME280;25019;42.626;23.380;2023-07-20T07:44:54;94125.44;;;29.17;47.80
39301;BME280;25019;42.626;23.380;2023-07-20T07:47:20;94118.69;;;29.41;47.59
39301;BME280;25019;42.626;23.380;2023-07-20T07:49:46;94032.75;;;29.01;47.01
39301;BME280;25019;42.626;23.380;2023-07-20T07:52:11;94120.94;;;29.73;46.88
39301;BME280;25019;42.626;23.380;2023-07-20T07:54:37;94080.00;;;29.39;47.86
39301;BME280;25019;42.626;23.380;2023-07-20T07:57:03;94092.53;;;29.44;48.48
39301;BME280;25019;42.626;23.380;2023-07-20T07:59:28;94029.13;;;28.90;48.74
39301;BME280;25019;42.626;23.380;2023-07-20T08:01:56;94079.84;;;28.87;49.11
39301;BME280;25019;42.626;23.380;2023-07-20T08:04:22;94095.59;;;28.67;49.70
39301;BME280;25019;42.626;23.380;2023-07-20T08:06:47;94064.13;;;28.46;49.62
39301;BME280;25019;42.626;23.380;2023-07-20T08:09:13;94073.53;;;28.49;50.18
39301;BME280;25019;42.626;23.380;2023-07-20T08:11:39;94086.03;;;28.50;49.48
39301;BME280;25019;42.626;23.380;2023-07-20T08:14:05;94098.84;;;28.15;50.60
39301;BME280;25019;42.626;23.380;2023-07-20T08:16:30;94114.44;;;27.91;51.48
39301;BME280;25019;42.626;23.380;2023-07-20T08:18:56;94069.31;;;27.24;52.01
39301;BME280;25019;42.626;23.380;2023-07-20T08:21:21;94132.59;;;27.57;52.67
39301;BME280;25019;42.626;23.380;2023-07-20T08:23:47;94126.38;;;27.56;53.15
39301;BME280;25019;42.626;23.380;2023-07-20T08:26:12;94115.44;;;27.56;54.21
39301;BME280;25019;42.626;23.380;2023-07-20T08:28:38;94140.34;;;27.55;54.57
39301;BME280;25019;42.626;23.380;2023-07-20T08:31:05;94146.53;;;27.32;56.03
39301;BME280;25019;42.626;23.380;2023-07-20T08:33:32;94044.22;;;26.52;57.11
39301;BME280;25019;42.626;23.380;2023-07-20T08:36:01;94128.59;;;26.88;58.86
39301;BME280;25019;42.626;23.380;2023-07-20T08:38:27;94124.50;;;26.78;58.25
39301;BME280;25019;42.626;23.380;2023-07-20T08:40:53;94136.16;;;26.59;58.66
39301;BME280;25019;42.626;23.380;2023-07-20T08:43:20;94129.91;;;26.39;58.65
39301;BME280;25019;42.626;23.380;2023-07-20T08:45:46;94133.63;;;26.30;57.35
39301;BME280;25019;42.626;23.380;2023-07-20T08:48:14;94139.31;;;26.41;56.07
39301;BME280;25019;42.626;23.380;2023-07-20T08:50:41;94130.09;;;26.30;54.75
39301;BME280;25019;42.626;23.380;2023-07-20T08:53:08;94130.03;;;26.26;54.43
39301;BME280;25019;42.626;23.380;2023-07-20T08:55:34;94096.59;;;26.10;53.03
39301;BME280;25019;42.626;23.380;2023-07-20T08:58:00;94074.84;;;25.94;52.21
39301;BME280;25019;42.626;23.380;2023-07-20T09:00:27;94117.13;;;26.23;50.97
39301;BME280;25019;42.626;23.380;2023-07-20T09:02:56;94031.56;;;25.69;51.26
39301;BME280;25019;42.626;23.380;2023-07-20T09:05:24;94103.59;;;26.11;51.19
39301;BME280;25019;42.626;23.380;2023-07-20T09:07:52;94042.38;;;25.65;52.01
39301;BME280;25019;42.626;23.380;2023-07-20T09:10:21;94112.13;;;26.09;51.83
39301;BME280;25019;42.626;23.380;2023-07-20T09:12:46;94104.41;;;26.11;51.26
39301;BME280;25019;42.626;23.380;2023-07-20T09:15:12;94112.63;;;26.31;51.86
39301;BME280;25019;42.626;23.380;2023-07-20T09:17:38;94117.25;;;26.46;50.53
39301;BME280;25019;42.626;23.380;2023-07-20T09:20:05;94108.59;;;26.60;50.94
39301;BME280;25019;42.626;23.380;2023-07-20T09:22:39;94089.38;;;26.53;50.72
39301;BME280;25019;42.626;23.380;2023-07-20T09:25:12;94111.88;;;26.70;49.76
39301;BME280;25019;42.626;23.380;2023-07-20T09:27:46;94093.91;;;26.85;50.35
39301;BME280;25019;42.626;23.380;2023-07-20T09:30:12;94092.59;;;26.98;50.22
39301;BME280;25019;42.626;23.380;2023-07-20T09:32:47;94100.56;;;26.87;48.64
39301;BME280;25019;42.626;23.380;2023-07-20T09:35:18;94104.44;;;26.86;48.84
39301;BME280;25019;42.626;23.380;2023-07-20T09:37:58;94061.28;;;26.69;47.92
39301;BME280;25019;42.626;23.380;2023-07-20T09:40:25;94104.72;;;27.01;48.62
39301;BME280;25019;42.626;23.380;2023-07-20T09:42:54;94094.63;;;27.01;49.09
39301;BME280;25019;42.626;23.380;2023-07-20T09:45:35;94094.84;;;27.16;49.09
39301;BME280;25019;42.626;23.380;2023-07-20T09:48:09;94080.34;;;27.31;48.36
39301;BME280;25019;42.626;23.380;2023-07-20T09:50:49;94080.44;;;27.39;46.32
39301;BME280;25019;42.626;23.380;2023-07-20T09:53:17;94083.28;;;27.46;46.26
39301;BME280;25019;42.626;23.380;2023-07-20T09:55:46;94076.47;;;27.56;45.88
39301;BME280;25019;42.626;23.380;2023-07-20T09:58:13;94062.06;;;27.82;45.39
39301;BME280;25019;42.626;23.380;2023-07-20T10:00:39;94057.69;;;28.31;45.40
39301;BME280;25019;42.626;23.380;2023-07-20T10:03:06;94047.03;;;28.83;44.14
39301;BME280;25019;42.626;23.380;2023-07-20T10:05:43;94038.38;;;28.78;43.87
39301;BME280;25019;42.626;23.380;2023-07-20T10:08:12;94051.81;;;28.94;43.75
39301;BME280;25019;42.626;23.380;2023-07-20T10:10:40;94042.50;;;28.98;43.00
39301;BME280;25019;42.626;23.380;2023-07-20T10:13:19;94056.66;;;29.11;42.13
39301;BME280;25019;42.626;23.380;2023-07-20T10:15:50;94058.69;;;29.18;42.41
39301;BME280;25019;42.626;23.380;2023-07-20T10:18:37;94060.44;;;28.96;41.99
39301;BME280;25019;42.626;23.380;2023-07-20T10:21:06;94075.69;;;29.00;41.60
39301;BME280;25019;42.626;23.380;2023-07-20T10:23:33;94061.91;;;29.31;40.26
39301;BME280;25019;42.626;23.380;2023-07-20T10:26:01;94068.81;;;29.55;40.30
39301;BME280;25019;42.626;23.380;2023-07-20T10:28:27;94064.16;;;29.59;38.72
39301;BME280;25019;42.626;23.380;2023-07-20T10:30:53;94063.91;;;29.79;39.01
39301;BME280;25019;42.626;23.380;2023-07-20T10:33:19;93999.69;;;29.62;39.21
39301;BME280;25019;42.626;23.380;2023-07-20T10:35:52;94061.19;;;30.46;38.74
39301;BME280;25019;42.626;23.380;2023-07-20T10:38:18;94035.72;;;30.38;38.25
39301;BME280;25019;42.626;23.380;2023-07-20T10:40:54;93978.97;;;30.35;38.78
39301;BME280;25019;42.626;23.380;2023-07-20T10:43:20;94053.25;;;31.22;37.43
39301;BME280;25019;42.626;23.380;2023-07-20T10:45:52;94050.31;;;30.68;37.24
39301;BME280;25019;42.626;23.380;2023-07-20T10:48:22;94045.53;;;30.46;38.19
39301;BME280;25019;42.626;23.380;2023-07-20T10:51:22;94035.31;;;30.36;38.84
39301;BME280;25019;42.626;23.380;2023-07-20T10:53:49;94001.25;;;30.23;39.85
39301;BME280;25019;42.626;23.380;2023-07-20T10:56:20;93979.44;;;30.55;39.55
39301;BME280;25019;42.626;23.380;2023-07-20T10:58:46;93990.47;;;30.77;38.70
39301;BME280;25019;42.626;23.380;2023-07-20T11:01:16;94012.44;;;31.02;38.00
39301;BME280;25019;42.626;23.380;2023-07-20T11:03:43;94020.72;;;31.17;38.52
39301;BME280;25019;42.626;23.380;2023-07-20T11:06:34;94004.28;;;31.31;38.26
39301;BME280;25019;42.626;23.380;2023-07-20T11:09:07;93986.59;;;31.14;37.85
39301;BME280;25019;42.626;23.380;2023-07-20T11:11:38;93988.22;;;31.26;37.89
39301;BME280;25019;42.626;23.380;2023-07-20T11:14:20;93933.69;;;30.96;37.98
39301;BME280;25019;42.626;23.380;2023-07-20T11:16:48;93931.75;;;30.96;38.67
39301;BME280;25019;42.626;23.380;2023-07-20T11:19:24;93987.41;;;31.40;38.59
39301;BME280;25019;42.626;23.380;2023-07-20T11:24:17;94004.28;;;31.78;37.21
39301;BME280;25019;42.626;23.380;2023-07-20T11:26:47;93988.16;;;31.91;36.88
39301;BME280;25019;42.626;23.380;2023-07-20T11:29:13;93979.53;;;31.93;36.57
39301;BME280;25019;42.626;23.380;2023-07-20T11:31:40;93983.47;;;31.70;37.02
39301;BME280;25019;42.626;23.380;2023-07-20T11:34:18;93974.88;;;31.75;37.44
39301;BME280;25019;42.626;23.380;2023-07-20T11:36:49;93970.16;;;31.54;37.65
39301;BME280;25019;42.626;23.380;2023-07-20T11:39:16;93972.53;;;31.45;38.26
39301;BME280;25019;42.626;23.380;2023-07-20T11:41:53;93964.69;;;31.43;38.79
39301;BME280;25019;42.626;23.380;2023-07-20T11:44:21;93968.22;;;31.29;38.41
39301;BME280;25019;42.626;23.380;2023-07-20T11:47:17;93914.53;;;30.99;39.54
39301;BME280;25019;42.626;23.380;2023-07-20T11:49:44;93949.81;;;31.30;39.27
39301;BME280;25019;42.626;23.380;2023-07-20T11:52:13;93946.69;;;31.24;39.29
39301;BME280;25019;42.626;23.380;2023-07-20T11:54:41;93923.94;;;30.94;38.75
39301;BME280;25019;42.626;23.380;2023-07-20T11:57:07;93939.22;;;31.10;39.95
39301;BME280;25019;42.626;23.380;2023-07-20T12:00:02;93934.13;;;31.01;39.77
39301;BME280;25019;42.626;23.380;2023-07-20T12:02:30;93929.00;;;30.82;39.46
39301;BME280;25019;42.626;23.380;2023-07-20T12:04:57;93924.72;;;30.84;40.16
39301;BME280;25019;42.626;23.380;2023-07-20T12:07:23;93918.84;;;31.00;39.68
39301;BME280;25019;42.626;23.380;2023-07-20T12:10:23;93925.47;;;31.14;39.42
39301;BME280;25019;42.626;23.380;2023-07-20T12:12:49;93923.91;;;31.13;38.05
39301;BME280;25019;42.626;23.380;2023-07-20T12:17:54;93925.50;;;30.88;38.45
39301;BME280;25019;42.626;23.380;2023-07-20T12:20:30;93913.75;;;30.88;38.50
39301;BME280;25019;42.626;23.380;2023-07-20T12:23:12;93905.50;;;30.99;37.38
39301;BME280;25019;42.626;23.380;2023-07-20T12:25:42;93908.25;;;31.06;36.93
39301;BME280;25019;42.626;23.380;2023-07-20T12:28:16;93908.69;;;31.15;36.37
39301;BME280;25019;42.626;23.380;2023-07-20T12:30:44;93875.75;;;30.97;35.88
39301;BME280;25019;42.626;23.380;2023-07-20T12:33:09;93914.94;;;31.27;35.30
39301;BME280;25019;42.626;23.380;2023-07-20T12:35:35;93842.88;;;30.97;35.85
39301;BME280;25019;42.626;23.380;2023-07-20T12:38:01;93864.00;;;31.26;34.04
39301;BME280;25019;42.626;23.380;2023-07-20T12:40:27;93864.78;;;31.19;34.65
39301;BME280;25019;42.626;23.380;2023-07-20T12:42:53;93881.59;;;31.43;34.56
39301;BME280;25019;42.626;23.380;2023-07-20T12:45:18;93844.00;;;31.11;33.72
39301;BME280;25019;42.626;23.380;2023-07-20T12:47:44;93894.53;;;31.49;33.83
39301;BME280;25019;42.626;23.380;2023-07-20T12:50:10;93901.56;;;31.54;34.00
39301;BME280;25019;42.626;23.380;2023-07-20T12:52:37;93899.59;;;31.58;34.22
39301;BME280;25019;42.626;23.380;2023-07-20T12:55:07;93886.28;;;31.60;35.53
39301;BME280;25019;42.626;23.380;2023-07-20T12:57:37;93892.16;;;31.62;33.67
39301;BME280;25019;42.626;23.380;2023-07-20T13:00:05;93893.72;;;31.63;32.14
39301;BME280;25019;42.626;23.380;2023-07-20T13:02:32;93883.56;;;31.46;31.68
39301;BME280;25019;42.626;23.380;2023-07-20T13:04:58;93876.53;;;31.27;32.01